Time;durP1;ratioP1;P1;durP2;ratioP2;P2;SDS_P1;SDS_P2;PMS_P1;PMS_P2;Temp;Humidity;BMP_temperature;BMP_pressure;BME280_temperature;BME280_humidity;BME280_pressure;Samples;Min_cycle;Max_cycle;Signal;HPM_P1;HPM_P2
2022/02/10 00:13:59;;;;;;;8.80;5.80;;;;;;;;;;5028838;28;20320;-61
2022/02/10 00:16:51;;;;;;;8.97;6.50;;;;;;;;;;5021286;28;20287;-60
2022/02/10 00:22:05;;;;;;;9.80;6.07;;;;;;;;;;5025056;28;20213;-61
2022/02/10 00:36:01;;;;;;;6.73;5.43;;;;;;;;;;5033769;28;20255;-60
2022/02/10 00:38:44;;;;;;;9.83;6.40;;;;;;;;;;4987542;28;20179;-60
2022/02/10 00:41:26;;;;;;;11.33;6.10;;;;;;;;;;5015061;28;20221;-60
2022/02/10 00:43:58;;;;;;;9.73;5.77;;;;;;;;;;5027696;28;20188;-59
2022/02/10 00:46:24;;;;;;;8.93;6.30;;;;;;;;;;5023279;28;20193;-60
2022/02/10 00:48:51;;;;;;;10.67;6.60;;;;;;;;;;5017467;28;20181;-60
2022/02/10 00:51:18;;;;;;;9.67;5.90;;;;;;;;;;5017488;28;20252;-59
2022/02/10 00:53:51;;;;;;;8.90;5.70;;;;;;;;;;5011043;28;20581;-60
2022/02/10 00:56:24;;;;;;;8.33;6.23;;;;;;;;;;5018247;28;20225;-59
2022/02/10 00:59:00;;;;;;;9.23;6.30;;;;;;;;;;5037963;28;20277;-60
2022/02/10 01:07:06;;;;;;;7.43;5.80;;;;;;;;;;5021059;28;20660;-59
2022/02/10 01:12:30;;;;;;;7.40;5.13;;;;;;;;;;5011903;28;20189;-59
2022/02/10 01:31:46;;;;;;;9.87;6.33;;;;;;;;;;5019220;28;20197;-60
2022/02/10 01:34:16;;;;;;;9.53;6.33;;;;;;;;;;5013355;28;20182;-60
2022/02/10 01:36:42;;;;;;;9.80;6.47;;;;;;;;;;5027311;28;20212;-59
2022/02/10 01:39:23;;;;;;;9.53;6.17;;;;;;;;;;5014352;28;20189;-60
2022/02/10 01:58:35;;;;;;;12.40;6.67;;;;;;;;;;5016583;28;20718;-60
2022/02/10 02:03:47;;;;;;;8.60;5.73;;;;;;;;;;5015101;28;20192;-60
2022/02/10 02:06:24;;;;;;;9.10;6.23;;;;;;;;;;5030081;28;20177;-60
2022/02/10 02:08:53;;;;;;;12.13;6.20;;;;;;;;;;5031614;28;20192;-59
2022/02/10 02:11:31;;;;;;;7.40;5.97;;;;;;;;;;5013638;28;20182;-59
2022/02/10 02:13:57;;;;;;;15.00;7.93;;;;;;;;;;5026056;28;20185;-59
2022/02/10 02:16:30;;;;;;;8.67;6.30;;;;;;;;;;5026709;28;20690;-61
2022/02/10 02:18:56;;;;;;;7.47;5.77;;;;;;;;;;5017027;28;20575;-60
2022/02/10 02:21:23;;;;;;;11.70;7.03;;;;;;;;;;4999738;28;20190;-59
2022/02/10 02:23:49;;;;;;;10.17;6.53;;;;;;;;;;5028952;28;20699;-60
2022/02/10 02:26:33;;;;;;;11.60;7.30;;;;;;;;;;5015469;28;20695;-60
2022/02/10 02:29:12;;;;;;;9.67;7.30;;;;;;;;;;5008428;28;20664;-59
2022/02/10 02:31:56;;;;;;;9.83;7.03;;;;;;;;;;5043712;28;20208;-59
2022/02/10 03:05:21;;;;;;;11.60;7.80;;;;;;;;;;5015158;28;20656;-60
2022/02/10 03:07:57;;;;;;;10.37;7.37;;;;;;;;;;5028677;28;20178;-60
2022/02/10 03:13:39;;;;;;;8.77;6.83;;;;;;;;;;5011216;28;20779;-59
2022/02/10 03:16:49;;;;;;;8.17;7.37;;;;;;;;;;5012562;28;20241;-60
2022/02/10 04:01:02;;;;;;;9.53;7.20;;;;;;;;;;5042308;28;20234;-61
2022/02/10 04:09:12;;;;;;;8.47;6.77;;;;;;;;;;5021900;28;20200;-59
2022/02/10 04:14:19;;;;;;;9.03;6.87;;;;;;;;;;5029202;28;20719;-60
2022/02/10 04:17:01;;;;;;;9.57;8.70;;;;;;;;;;5030579;28;20209;-60
2022/02/10 04:22:24;;;;;;;9.67;7.10;;;;;;;;;;4993679;28;20198;-60
2022/02/10 05:07:14;;;;;;;10.57;7.27;;;;;;;;;;4994465;28;20182;-59
2022/02/10 05:13:18;;;;;;;7.43;6.67;;;;;;;;;;4997570;28;20591;-59
2022/02/10 05:24:09;;;;;;;9.37;7.63;;;;;;;;;;5011776;28;20209;-60
2022/02/10 05:35:42;;;;;;;14.80;6.60;;;;;;;;;;5013940;28;20636;-60
2022/02/10 05:38:37;;;;;;;8.43;6.77;;;;;;;;;;5048611;28;20711;-59
2022/02/10 05:44:03;;;;;;;7.60;5.90;;;;;;;;;;5034922;28;20181;-60
2022/02/10 07:10:57;;;;;;;6.63;5.57;;;;;;;;;;5010953;28;20186;-59
2022/02/10 07:44:14;;;;;;;10.00;7.10;;;;;;;;;;5029699;28;20639;-62
2022/02/10 07:59:38;;;;;;;8.50;5.90;;;;;;;;;;5014736;28;20212;-60
2022/02/10 08:57:45;;;;;;;16.40;7.30;;;;;;;;;;5026912;28;20205;-61
2022/02/10 09:05:50;;;;;;;11.37;6.63;;;;;;;;;;5027687;28;20434;-60
2022/02/10 09:09:09;;;;;;;8.50;6.60;;;;;;;;;;5026958;28;20698;-60
2022/02/10 09:14:43;;;;;;;9.43;5.83;;;;;;;;;;5028096;28;20188;-61
2022/02/10 09:49:29;;;;;;;10.20;6.90;;;;;;;;;;4998290;28;20694;-59
2022/02/10 10:02:49;;;;;;;13.67;7.47;;;;;;;;;;5005346;28;20262;-59
2022/02/10 10:05:31;;;;;;;9.77;7.13;;;;;;;;;;4988691;28;20667;-59
2022/02/10 10:08:30;;;;;;;9.27;7.50;;;;;;;;;;4980517;28;20201;-60
2022/02/10 10:11:47;;;;;;;13.73;7.47;;;;;;;;;;4992640;28;20170;-58
2022/02/10 10:14:28;;;;;;;9.87;7.73;;;;;;;;;;5011554;28;20186;-58
2022/02/10 10:23:23;;;;;;;10.57;7.40;;;;;;;;;;4949733;28;20584;-57
2022/02/10 10:54:05;;;;;;;10.57;7.90;;;;;;;;;;5009091;28;20190;-58
2022/02/10 10:56:30;;;;;;;10.17;8.27;;;;;;;;;;5008030;28;20333;-57
2022/02/10 10:59:32;;;;;;;9.57;8.40;;;;;;;;;;5010295;28;20171;-57
2022/02/10 11:42:26;;;;;;;10.13;8.87;;;;;;;;;;5029995;28;20181;-57
2022/02/10 11:46:00;;;;;;;11.27;9.13;;;;;;;;;;5043181;28;20271;-59
2022/02/10 12:34:01;;;;;;;12.03;9.57;;;;;;;;;;5039434;28;20188;-57
2022/02/10 12:39:12;;;;;;;12.37;10.17;;;;;;;;;;5009225;28;20217;-58
2022/02/10 13:48:09;;;;;;;10.17;8.43;;;;;;;;;;5029972;28;20170;-58
2022/02/10 14:18:06;;;;;;;9.37;7.90;;;;;;;;;;5032029;28;20726;-57
2022/02/10 14:25:46;;;;;;;10.53;8.43;;;;;;;;;;5031419;28;20308;-57
2022/02/10 14:28:13;;;;;;;11.13;8.57;;;;;;;;;;5029397;28;20192;-58
2022/02/10 14:30:39;;;;;;;9.13;8.00;;;;;;;;;;5052009;28;20181;-58
2022/02/10 14:33:08;;;;;;;9.27;8.20;;;;;;;;;;5045725;28;20648;-57
2022/02/10 14:35:55;;;;;;;10.47;8.23;;;;;;;;;;5036065;28;20205;-57
2022/02/10 15:16:31;;;;;;;11.10;6.10;;;;;;;;;;5043760;28;20231;-56
2022/02/10 15:30:33;;;;;;;8.80;6.43;;;;;;;;;;5027876;28;20220;-58
2022/02/10 15:49:07;;;;;;;7.00;5.50;;;;;;;;;;5035916;28;20240;-59
2022/02/10 16:10:52;;;;;;;10.20;5.57;;;;;;;;;;5033896;28;20603;-59
2022/02/10 16:18:49;;;;;;;9.90;5.60;;;;;;;;;;5035628;28;20415;-57
2022/02/10 16:21:23;;;;;;;8.13;4.70;;;;;;;;;;5014570;28;20185;-58
2022/02/10 16:23:58;;;;;;;6.80;4.83;;;;;;;;;;5017797;28;20224;-58
2022/02/10 16:26:38;;;;;;;6.93;4.63;;;;;;;;;;5020857;28;20169;-58
2022/02/10 16:29:05;;;;;;;5.77;4.70;;;;;;;;;;5034789;28;20396;-58
2022/02/10 16:31:32;;;;;;;9.47;4.60;;;;;;;;;;5020390;28;20650;-58
2022/02/10 16:34:01;;;;;;;7.80;4.27;;;;;;;;;;5028807;28;20284;-58
2022/02/10 16:36:32;;;;;;;7.10;4.50;;;;;;;;;;5021620;28;20198;-57
2022/02/10 16:39:01;;;;;;;6.50;4.37;;;;;;;;;;5033421;28;20548;-58
2022/02/10 16:41:28;;;;;;;4.97;4.47;;;;;;;;;;5019460;28;20177;-60
2022/02/10 16:43:54;;;;;;;6.43;4.00;;;;;;;;;;5013129;28;20173;-59
2022/02/10 16:46:22;;;;;;;7.30;3.80;;;;;;;;;;5028530;28;20699;-58
2022/02/10 16:48:49;;;;;;;6.90;4.60;;;;;;;;;;5027872;28;20652;-57
2022/02/10 16:51:20;;;;;;;8.83;4.97;;;;;;;;;;5010031;28;20213;-58
2022/02/10 16:53:53;;;;;;;10.30;5.13;;;;;;;;;;5006283;28;20259;-58
2022/02/10 16:56:33;;;;;;;5.47;4.33;;;;;;;;;;5009921;28;20857;-59
2022/02/10 16:59:23;;;;;;;6.53;4.57;;;;;;;;;;5008824;28;20427;-59
2022/02/10 17:20:47;;;;;;;7.60;4.47;;;;;;;;;;5035169;28;20217;-59
2022/02/10 17:29:08;;;;;;;5.40;3.70;;;;;;;;;;5027660;28;20193;-58
2022/02/10 17:32:28;;;;;;;4.27;3.17;;;;;;;;;;5032792;28;20651;-58
2022/02/10 17:45:49;;;;;;;8.90;4.30;;;;;;;;;;5032722;28;20215;-59
2022/02/10 17:53:44;;;;;;;9.83;3.90;;;;;;;;;;5038506;28;20191;-60
2022/02/10 17:56:10;;;;;;;7.10;3.87;;;;;;;;;;5015464;28;20201;-58
2022/02/10 17:58:37;;;;;;;8.33;3.90;;;;;;;;;;5014000;28;20208;-58
2022/02/10 18:01:04;;;;;;;9.90;4.67;;;;;;;;;;5043207;28;20224;-58
2022/02/10 18:03:31;;;;;;;9.10;4.20;;;;;;;;;;5032579;28;20575;-58
2022/02/10 18:08:38;;;;;;;11.17;5.03;;;;;;;;;;5040767;28;20169;-58
2022/02/10 18:16:41;;;;;;;7.80;5.13;;;;;;;;;;5027481;28;20191;-58
2022/02/10 18:19:21;;;;;;;8.03;4.03;;;;;;;;;;5036996;28;20217;-58
2022/02/10 19:10:00;;;;;;;5.30;2.10;;;;;;;;;;5029268;28;20231;-58
2022/02/10 19:12:30;;;;;;;2.70;1.90;;;;;;;;;;5026635;28;20204;-58
2022/02/10 19:15:08;;;;;;;3.57;1.60;;;;;;;;;;5025501;28;20186;-58
2022/02/10 19:17:37;;;;;;;3.33;2.10;;;;;;;;;;5026672;28;20433;-59
2022/02/10 19:20:07;;;;;;;4.40;2.10;;;;;;;;;;5014874;28;20261;-59
2022/02/10 19:22:33;;;;;;;7.67;2.50;;;;;;;;;;5036742;28;20220;-58
2022/02/10 19:25:03;;;;;;;3.17;2.20;;;;;;;;;;5026849;28;20536;-58
2022/02/10 19:27:29;;;;;;;2.93;2.10;;;;;;;;;;5015270;28;20217;-58
2022/02/10 19:29:59;;;;;;;2.37;2.00;;;;;;;;;;5016201;28;20644;-57
2022/02/10 19:32:29;;;;;;;7.20;2.00;;;;;;;;;;5035832;28;20638;-60
2022/02/10 19:34:59;;;;;;;5.20;2.40;;;;;;;;;;5036057;28;20244;-57
2022/02/10 19:37:33;;;;;;;5.53;2.37;;;;;;;;;;5044716;28;20676;-58
2022/02/10 19:40:02;;;;;;;5.27;2.50;;;;;;;;;;5016227;28;20189;-58
2022/02/10 19:42:31;;;;;;;2.73;2.20;;;;;;;;;;5040165;28;20189;-58
2022/02/10 19:45:04;;;;;;;4.87;2.67;;;;;;;;;;5035628;28;20181;-60
2022/02/10 19:47:47;;;;;;;2.90;2.00;;;;;;;;;;5034445;28;20633;-60
2022/02/10 19:50:17;;;;;;;2.90;2.17;;;;;;;;;;5038749;28;20240;-60
2022/02/10 19:52:48;;;;;;;7.33;2.07;;;;;;;;;;5034855;28;20192;-60
2022/02/10 19:55:21;;;;;;;4.43;2.20;;;;;;;;;;5044490;28;20209;-59
2022/02/10 19:58:19;;;;;;;3.70;2.37;;;;;;;;;;5031662;28;20209;-60
2022/02/10 20:00:50;;;;;;;5.93;2.40;;;;;;;;;;5029671;28;20190;-59
2022/02/10 20:03:25;;;;;;;6.03;2.43;;;;;;;;;;5043024;28;20260;-60
2022/02/10 20:06:04;;;;;;;3.20;1.90;;;;;;;;;;5026443;28;20181;-59
2022/02/10 20:08:34;;;;;;;3.37;2.40;;;;;;;;;;5034073;28;20491;-60
2022/02/10 20:11:08;;;;;;;4.67;2.13;;;;;;;;;;5028088;28;20186;-59
2022/02/10 20:13:34;;;;;;;3.33;1.80;;;;;;;;;;5015621;28;20185;-59
2022/02/10 20:16:08;;;;;;;3.87;1.83;;;;;;;;;;5008039;28;20178;-60
2022/02/10 20:18:38;;;;;;;2.63;1.60;;;;;;;;;;5009836;28;20312;-59
2022/02/10 20:21:05;;;;;;;3.60;1.77;;;;;;;;;;5033434;28;20189;-59
2022/02/10 20:23:33;;;;;;;1.50;1.27;;;;;;;;;;5006637;28;20714;-58
2022/02/10 20:26:01;;;;;;;2.20;1.87;;;;;;;;;;5001810;28;20174;-58
2022/02/10 20:28:30;;;;;;;2.57;1.47;;;;;;;;;;5005849;28;20546;-58
2022/02/10 20:31:02;;;;;;;1.60;1.27;;;;;;;;;;5015157;28;20554;-59
2022/02/10 20:33:32;;;;;;;2.70;1.40;;;;;;;;;;4994336;28;20177;-60
2022/02/10 20:36:01;;;;;;;2.30;1.50;;;;;;;;;;5008767;28;20185;-59
2022/02/10 20:38:29;;;;;;;2.47;1.90;;;;;;;;;;4997799;28;20215;-58
2022/02/10 20:41:02;;;;;;;2.97;1.50;;;;;;;;;;5001540;28;20185;-60
2022/02/10 20:43:28;;;;;;;2.13;1.33;;;;;;;;;;4998557;28;20175;-59
2022/02/10 20:46:09;;;;;;;3.83;1.33;;;;;;;;;;5019276;28;20953;-60
2022/02/10 20:48:38;;;;;;;2.20;1.20;;;;;;;;;;4993098;28;20217;-60
2022/02/10 20:51:17;;;;;;;1.30;1.20;;;;;;;;;;5003141;28;20174;-60
2022/02/10 20:53:49;;;;;;;3.70;1.50;;;;;;;;;;4985426;28;20555;-60
2022/02/10 20:56:20;;;;;;;3.03;1.40;;;;;;;;;;5002135;28;20653;-60
2022/02/10 20:58:59;;;;;;;3.50;1.70;;;;;;;;;;4994012;28;20878;-60
2022/02/10 21:01:27;;;;;;;2.93;1.30;;;;;;;;;;4989180;28;20227;-59
2022/02/10 21:04:04;;;;;;;1.77;1.30;;;;;;;;;;4988836;28;20274;-61
2022/02/10 21:06:50;;;;;;;1.63;1.30;;;;;;;;;;4983529;28;20179;-60
2022/02/10 21:09:33;;;;;;;2.37;1.73;;;;;;;;;;5004374;28;20261;-60
2022/02/10 21:12:00;;;;;;;2.87;1.20;;;;;;;;;;5008267;28;20179;-59
2022/02/10 21:14:28;;;;;;;2.33;1.50;;;;;;;;;;5006765;28;20511;-60
2022/02/10 21:17:08;;;;;;;2.10;1.37;;;;;;;;;;5007100;28;20558;-60
2022/02/10 21:19:39;;;;;;;3.00;1.37;;;;;;;;;;4998939;28;20231;-60
2022/02/10 21:22:12;;;;;;;1.57;1.27;;;;;;;;;;5005216;28;20699;-60
2022/02/10 21:24:44;;;;;;;1.67;1.30;;;;;;;;;;5019422;28;20229;-60
2022/02/10 21:29:53;;;;;;;2.13;1.40;;;;;;;;;;5004223;28;20166;-59
2022/02/10 21:32:19;;;;;;;2.97;1.40;;;;;;;;;;5017411;28;20173;-58
2022/02/10 21:36:36;;;;;;;3.40;1.80;;;;;;;;;;5025509;28;20181;-59
2022/02/10 22:11:30;;;;;;;2.90;1.50;;;;;;;;;;5009509;28;20233;-60
2022/02/10 22:19:20;;;;;;;3.53;1.30;;;;;;;;;;5014727;28;20710;-59
2022/02/10 22:21:58;;;;;;;2.37;1.67;;;;;;;;;;5009899;28;20503;-59
2022/02/10 22:24:42;;;;;;;1.83;1.33;;;;;;;;;;4997545;28;20244;-59
2022/02/10 22:27:10;;;;;;;2.33;1.50;;;;;;;;;;5011756;28;20182;-58
2022/02/10 22:29:45;;;;;;;1.10;1.03;;;;;;;;;;5011534;28;20534;-59
2022/02/10 22:34:52;;;;;;;2.20;1.27;;;;;;;;;;5018625;28;20221;-59
2022/02/10 22:37:19;;;;;;;2.50;1.40;;;;;;;;;;5005211;28;20210;-58
2022/02/10 22:39:47;;;;;;;2.27;1.37;;;;;;;;;;5010046;28;20178;-59
2022/02/10 22:42:14;;;;;;;1.47;1.20;;;;;;;;;;5012748;28;20278;-60
2022/02/10 22:44:41;;;;;;;4.00;1.30;;;;;;;;;;5001569;28;20190;-59
2022/02/10 22:47:10;;;;;;;1.90;1.47;;;;;;;;;;5010407;28;20277;-59
2022/02/10 22:49:36;;;;;;;1.63;1.53;;;;;;;;;;5011074;28;20592;-60
2022/02/10 22:52:03;;;;;;;1.80;1.30;;;;;;;;;;5025036;28;20691;-59
2022/02/10 22:54:29;;;;;;;1.50;1.40;;;;;;;;;;5011456;28;20464;-58
2022/02/10 22:56:55;;;;;;;3.47;1.60;;;;;;;;;;5020760;28;20547;-58
2022/02/10 22:59:21;;;;;;;2.73;1.40;;;;;;;;;;5014903;28;20610;-60
2022/02/10 23:01:48;;;;;;;1.47;1.30;;;;;;;;;;5012854;28;20178;-61
2022/02/10 23:04:17;;;;;;;2.77;1.50;;;;;;;;;;5008984;28;20174;-61
2022/02/10 23:06:44;;;;;;;2.33;1.73;;;;;;;;;;5022184;28;20162;-62
2022/02/10 23:12:10;;;;;;;4.20;1.73;;;;;;;;;;4969777;28;20212;-61
2022/02/10 23:14:36;;;;;;;1.73;1.47;;;;;;;;;;5017648;28;20195;-61
2022/02/10 23:17:02;;;;;;;2.43;1.87;;;;;;;;;;5013147;28;20199;-61
2022/02/10 23:19:29;;;;;;;2.00;1.67;;;;;;;;;;5027143;28;20205;-61
2022/02/10 23:21:55;;;;;;;2.07;1.80;;;;;;;;;;5031047;28;20277;-60
2022/02/10 23:24:21;;;;;;;3.27;1.80;;;;;;;;;;5013317;28;20261;-61
2022/02/10 23:26:47;;;;;;;1.33;1.20;;;;;;;;;;5038153;28;20211;-61
2022/02/10 23:29:13;;;;;;;1.80;1.67;;;;;;;;;;5041628;28;20181;-61
2022/02/10 23:31:39;;;;;;;1.70;1.60;;;;;;;;;;5031579;28;20178;-61
2022/02/10 23:34:06;;;;;;;2.50;1.90;;;;;;;;;;5028693;28;20244;-61
2022/02/10 23:36:51;;;;;;;1.77;1.60;;;;;;;;;;5034582;28;20180;-61
2022/02/10 23:39:34;;;;;;;2.33;1.60;;;;;;;;;;5019750;28;20174;-61
2022/02/10 23:42:05;;;;;;;2.27;2.00;;;;;;;;;;5013899;28;20184;-61
2022/02/10 23:44:35;;;;;;;1.80;1.57;;;;;;;;;;5031825;28;20559;-61
2022/02/10 23:47:03;;;;;;;2.20;1.77;;;;;;;;;;5026121;28;20178;-61
2022/02/10 23:49:34;;;;;;;1.83;1.70;;;;;;;;;;5031695;28;20184;-61
2022/02/10 23:52:02;;;;;;;2.67;1.90;;;;;;;;;;5031512;28;20186;-60
2022/02/10 23:54:30;;;;;;;2.33;1.83;;;;;;;;;;5031335;28;20193;-60
2022/02/10 23:57:03;;;;;;;2.60;2.07;;;;;;;;;;5037463;28;20215;-61
